createdAt,value
2022-09-23T00:02:07.394Z,66.80
2022-09-23T00:04:36.915Z,66.90
2022-09-23T00:07:04.253Z,66.90
2022-09-23T00:09:33.949Z,67.00
2022-09-23T00:12:04.631Z,67.10
2022-09-23T00:14:37.123Z,67.10
2022-09-23T00:17:06.989Z,67.00
2022-09-23T00:19:40.044Z,67.00
2022-09-23T00:22:07.937Z,67.00
2022-09-23T00:24:37.662Z,67.10
2022-09-23T00:27:05.218Z,67.20
2022-09-23T00:29:32.769Z,67.40
2022-09-23T00:32:00.124Z,67.40
2022-09-23T00:34:27.400Z,67.50
2022-09-23T00:36:54.741Z,67.60
2022-09-23T00:39:22.041Z,67.50
2022-09-23T00:41:51.858Z,67.50
2022-09-23T00:44:43.970Z,67.70
2022-09-23T00:47:17.109Z,67.80
2022-09-23T00:49:46.959Z,67.60
2022-09-23T00:52:18.264Z,67.30
2022-09-23T00:54:48.164Z,67.30
2022-09-23T00:57:17.986Z,67.40
2022-09-23T00:59:48.010Z,67.50
2022-09-23T01:02:16.558Z,67.60
2022-09-23T01:04:44.135Z,67.50
2022-09-23T01:07:13.810Z,68.30
2022-09-23T01:09:41.401Z,67.80
2022-09-23T01:12:44.003Z,67.70
2022-09-23T01:15:36.478Z,67.90
2022-09-23T01:18:24.794Z,67.90
2022-09-23T01:21:00.037Z,68.00
2022-09-23T01:24:08.574Z,68.00
2022-09-23T01:27:33.031Z,67.80
2022-09-23T01:30:18.588Z,67.60
2022-09-23T01:32:56.697Z,67.40
2022-09-23T01:35:49.980Z,67.30
2022-09-23T01:38:21.867Z,67.30
2022-09-23T01:41:13.988Z,67.10
2022-09-23T01:43:58.055Z,67.10
2022-09-23T01:46:34.113Z,67.00
2022-09-23T01:49:21.429Z,67.00
2022-09-23T01:51:57.407Z,67.20
2022-09-23T01:54:35.210Z,67.20
2022-09-23T01:57:45.311Z,67.30
2022-09-23T02:00:17.276Z,67.30
2022-09-23T02:02:50.263Z,67.00
2022-09-23T02:05:27.977Z,66.90
2022-09-23T02:08:05.392Z,66.90
2022-09-23T02:10:44.255Z,66.70
2022-09-23T02:13:25.386Z,66.60
2022-09-23T02:16:01.166Z,66.70
2022-09-23T02:19:14.397Z,66.70
2022-09-23T02:21:47.331Z,67.00
2022-09-23T02:24:21.049Z,67.00
2022-09-23T02:27:01.412Z,67.10
2022-09-23T02:29:51.587Z,67.20
2022-09-23T02:32:42.144Z,67.50
2022-09-23T02:35:12.188Z,67.30
2022-09-23T02:37:44.722Z,67.40
2022-09-23T02:40:22.700Z,67.70
2022-09-23T02:43:06.304Z,68.00
2022-09-23T02:45:34.483Z,68.20
2022-09-23T02:48:13.731Z,68.40
2022-09-23T02:50:43.564Z,68.60
2022-09-23T02:53:10.945Z,68.70
2022-09-23T02:55:39.218Z,68.90
2022-09-23T02:58:06.576Z,69.10
2022-09-23T03:01:04.907Z,69.30
2022-09-23T03:03:53.830Z,69.70
2022-09-23T03:06:32.210Z,69.70
2022-09-23T03:09:47.658Z,70.20
2022-09-23T03:12:36.067Z,70.80
2022-09-23T03:15:27.721Z,70.90
2022-09-23T03:17:58.005Z,71.30
2022-09-23T03:20:49.568Z,71.20
2022-09-23T03:23:23.916Z,71.70
2022-09-23T03:25:56.868Z,71.60
2022-09-23T03:28:25.682Z,72.40
2022-09-23T03:30:56.377Z,71.80
2022-09-23T03:33:30.701Z,72.00
2022-09-23T03:36:22.710Z,72.20
2022-09-23T03:38:52.868Z,72.40
2022-09-23T03:41:32.818Z,72.10
2022-09-23T03:44:00.607Z,72.00
2022-09-23T03:46:30.209Z,71.90
2022-09-23T03:49:06.584Z,72.50
2022-09-23T03:51:33.909Z,71.80
2022-09-23T03:54:01.198Z,71.50
2022-09-23T03:56:28.455Z,71.40
2022-09-23T03:58:58.222Z,71.40
2022-09-23T04:01:30.297Z,71.30
2022-09-23T04:03:57.556Z,71.20
2022-09-23T04:06:25.077Z,71.10
2022-09-23T04:08:56.115Z,70.80
2022-09-23T04:11:25.901Z,70.80
2022-09-23T04:13:53.243Z,70.80
2022-09-23T04:16:20.703Z,70.60
2022-09-23T04:18:48.996Z,70.60
2022-09-23T04:21:16.290Z,70.60
2022-09-23T04:23:43.792Z,70.50
2022-09-23T04:26:11.683Z,70.30
2022-09-23T04:28:44.206Z,70.10
2022-09-23T04:31:11.647Z,70.10
2022-09-23T04:33:39.044Z,70.00
2022-09-23T04:36:06.622Z,69.80
2022-09-23T04:38:37.106Z,69.80
2022-09-23T04:41:04.497Z,70.00
2022-09-23T04:43:31.760Z,70.00
2022-09-23T04:46:00.820Z,70.80
2022-09-23T04:48:29.053Z,70.50
2022-09-23T04:51:18.811Z,70.80
2022-09-23T04:53:50.998Z,70.90
2022-09-23T04:56:29.036Z,70.90
2022-09-23T04:59:02.240Z,71.00
2022-09-23T05:01:35.183Z,71.10
2022-09-23T05:04:08.599Z,71.40
2022-09-23T05:06:36.989Z,71.60
2022-09-23T05:09:07.113Z,71.70
2022-09-23T05:11:36.782Z,71.90
2022-09-23T05:14:04.136Z,72.00
2022-09-23T05:16:33.534Z,72.20
2022-09-23T05:19:01.185Z,72.40
2022-09-23T05:21:33.010Z,72.30
2022-09-23T05:24:00.921Z,72.50
2022-09-23T05:26:31.765Z,72.20
2022-09-23T05:29:00.046Z,72.40
2022-09-23T05:31:29.572Z,72.40
2022-09-23T05:33:59.312Z,72.60
2022-09-23T05:36:27.880Z,72.70
2022-09-23T05:38:56.547Z,72.80
2022-09-23T05:41:24.440Z,73.00
2022-09-23T05:43:55.795Z,73.20
2022-09-23T05:46:26.332Z,73.40
2022-09-23T05:48:58.665Z,74.10
2022-09-23T05:51:30.899Z,73.40
2022-09-23T05:53:59.931Z,73.30
2022-09-23T05:56:28.728Z,73.20
2022-09-23T05:59:01.057Z,73.20
2022-09-23T06:01:34.490Z,73.00
2022-09-23T06:04:03.492Z,72.90
2022-09-23T06:06:39.245Z,72.90
2022-09-23T06:09:11.243Z,72.90
2022-09-23T06:11:38.569Z,72.80
2022-09-23T06:14:06.369Z,72.90
2022-09-23T06:16:35.943Z,72.90
2022-09-23T06:19:07.292Z,72.90
2022-09-23T06:21:37.171Z,72.90
2022-09-23T06:24:07.754Z,73.10
2022-09-23T06:26:37.570Z,73.00
2022-09-23T06:29:11.860Z,72.70
2022-09-23T06:31:41.225Z,72.50
2022-09-23T06:34:14.215Z,72.50
2022-09-23T06:36:45.370Z,72.50
2022-09-23T06:39:18.230Z,72.50
2022-09-23T06:41:45.666Z,72.50
2022-09-23T06:44:14.167Z,72.40
2022-09-23T06:46:41.655Z,72.20
2022-09-23T06:49:12.192Z,72.10
2022-09-23T06:51:40.205Z,72.20
2022-09-23T06:54:07.818Z,72.30
2022-09-23T06:56:39.403Z,72.30
2022-09-23T06:59:11.023Z,72.30
2022-09-23T07:01:40.611Z,72.20
2022-09-23T07:04:10.164Z,72.10
2022-09-23T07:06:37.441Z,72.20
2022-09-23T07:09:06.497Z,72.00
2022-09-23T07:11:34.090Z,72.00
2022-09-23T07:14:01.352Z,72.20
2022-09-23T07:16:31.603Z,72.20
2022-09-23T07:19:01.593Z,72.30
2022-09-23T07:21:28.896Z,72.50
2022-09-23T07:23:58.097Z,72.60
2022-09-23T07:26:26.165Z,72.70
2022-09-23T07:29:04.953Z,72.90
2022-09-23T07:31:39.224Z,72.30
2022-09-23T07:34:11.566Z,71.90
2022-09-23T07:36:40.983Z,72.00
2022-09-23T07:39:11.247Z,71.90
2022-09-23T07:41:39.017Z,71.80
2022-09-23T07:44:06.473Z,72.10
2022-09-23T07:46:36.086Z,72.20
2022-09-23T07:49:04.600Z,72.10
2022-09-23T07:51:36.643Z,71.70
2022-09-23T07:54:07.961Z,71.60
2022-09-23T07:56:38.203Z,71.20
2022-09-23T07:59:11.074Z,71.40
2022-09-23T08:01:44.157Z,71.40
2022-09-23T08:04:13.124Z,71.60
2022-09-23T08:06:44.051Z,71.70
2022-09-23T08:09:12.067Z,71.40
2022-09-23T08:11:42.377Z,70.80
2022-09-23T08:14:15.582Z,70.50
2022-09-23T08:16:44.797Z,70.50
2022-09-23T08:19:15.386Z,71.00
2022-09-23T08:21:43.267Z,71.50
2022-09-23T08:24:17.810Z,71.40
2022-09-23T08:26:46.307Z,70.50
2022-09-23T08:29:15.839Z,70.30
2022-09-23T08:31:43.188Z,70.50
2022-09-23T08:34:11.179Z,70.30
2022-09-23T08:36:38.536Z,69.50
2022-09-23T08:39:06.783Z,69.10
2022-09-23T08:41:39.669Z,69.30
2022-09-23T08:44:21.723Z,69.10
2022-09-23T08:47:12.014Z,69.40
2022-09-23T08:49:50.291Z,70.00
2022-09-23T08:52:28.363Z,69.70
2022-09-23T08:54:57.977Z,69.60
2022-09-23T08:57:57.501Z,70.20
2022-09-23T09:01:14.451Z,69.40
2022-09-23T09:03:55.241Z,70.20
2022-09-23T09:06:51.806Z,70.10
2022-09-23T09:09:29.118Z,68.90
2022-09-23T09:12:16.234Z,69.30
2022-09-23T09:15:01.598Z,69.50
2022-09-23T09:17:52.536Z,69.30
2022-09-23T09:20:19.907Z,68.80
2022-09-23T09:22:57.953Z,68.40
2022-09-23T09:25:46.464Z,67.90
2022-09-23T09:28:38.164Z,68.20
2022-09-23T09:31:27.096Z,68.40
2022-09-23T09:34:17.203Z,67.40
2022-09-23T09:36:56.333Z,67.30
2022-09-23T09:39:29.877Z,67.30
2022-09-23T09:41:59.627Z,67.20
2022-09-23T09:44:58.685Z,67.30
2022-09-23T09:47:40.535Z,64.80
2022-09-23T09:50:21.756Z,66.50
2022-09-23T09:52:56.168Z,64.50
2022-09-23T09:55:26.987Z,64.90
2022-09-23T09:57:57.439Z,65.40
2022-09-23T10:00:27.805Z,64.70
2022-09-23T10:03:03.382Z,64.20
2022-09-23T10:05:46.893Z,64.10
2022-09-23T10:08:26.757Z,63.20
2022-09-23T10:11:03.160Z,62.90
2022-09-23T10:13:31.576Z,62.10
2022-09-23T10:16:02.964Z,61.90
2022-09-23T10:18:36.130Z,59.80
2022-09-23T10:21:08.453Z,60.70
2022-09-23T10:23:44.759Z,58.70
2022-09-23T10:26:14.021Z,55.80
2022-09-23T10:28:41.343Z,56.40
2022-09-23T10:31:25.517Z,57.10
2022-09-23T10:34:14.519Z,56.10
2022-09-23T10:36:44.536Z,54.10
2022-09-23T10:39:30.643Z,55.70
2022-09-23T10:42:33.836Z,56.60
2022-09-23T10:45:24.924Z,54.70
2022-09-23T10:48:18.722Z,54.80
2022-09-23T10:50:53.251Z,54.60
2022-09-23T10:53:44.779Z,53.30
2022-09-23T10:56:34.363Z,53.80
2022-09-23T10:59:30.332Z,53.60
2022-09-23T11:02:23.351Z,53.20
2022-09-23T11:05:13.938Z,53.50
2022-09-23T11:08:06.754Z,52.70
2022-09-23T11:10:52.311Z,51.40
2022-09-23T11:13:34.471Z,51.50
2022-09-23T11:16:25.893Z,49.30
2022-09-23T11:19:22.183Z,51.10
2022-09-23T11:22:18.560Z,50.50
2022-09-23T11:24:52.370Z,51.90
2022-09-23T11:28:05.009Z,50.50
2022-09-23T11:30:38.180Z,49.70
2022-09-23T11:33:21.050Z,49.60
2022-09-23T11:35:52.578Z,50.40
2022-09-23T11:38:33.824Z,50.60
2022-09-23T11:41:24.847Z,50.50
2022-09-23T11:44:03.881Z,51.70
2022-09-23T11:46:40.368Z,50.50
2022-09-23T11:49:12.937Z,49.60
2022-09-23T11:51:43.389Z,50.90
2022-09-23T11:54:22.272Z,50.40
2022-09-23T11:56:57.392Z,49.60
2022-09-23T11:59:40.471Z,50.70
2022-09-23T12:02:30.997Z,51.00
2022-09-23T12:05:12.922Z,50.50
2022-09-23T12:08:14.633Z,49.70
2022-09-23T12:11:00.459Z,49.70
2022-09-23T12:14:08.760Z,50.70
2022-09-23T12:17:33.348Z,48.80
2022-09-23T12:20:42.207Z,48.40
2022-09-23T12:23:24.491Z,48.20
2022-09-23T12:25:57.132Z,47.30
2022-09-23T12:28:28.280Z,47.00
2022-09-23T12:30:57.199Z,46.80
2022-09-23T12:33:30.368Z,50.50
2022-09-23T12:36:30.456Z,45.90
2022-09-23T12:39:17.232Z,46.70
2022-09-23T12:41:49.251Z,43.80
2022-09-23T12:44:36.870Z,43.00
2022-09-23T12:47:25.307Z,43.80
2022-09-23T12:49:53.853Z,41.70
2022-09-23T12:52:26.159Z,39.80
2022-09-23T12:54:58.020Z,40.00
2022-09-23T12:57:34.530Z,38.20
2022-09-23T13:00:11.325Z,38.40
2022-09-23T13:03:12.418Z,38.60
2022-09-23T13:06:07.128Z,35.80
2022-09-23T13:08:39.010Z,35.60
2022-09-23T13:11:22.840Z,34.90
2022-09-23T13:13:50.849Z,35.40
2022-09-23T13:16:37.042Z,33.90
2022-09-23T13:19:09.758Z,35.00
2022-09-23T13:21:42.889Z,33.40
2022-09-23T13:24:13.327Z,33.40
2022-09-23T13:26:52.035Z,33.80
2022-09-23T13:29:51.848Z,33.80
2022-09-23T13:32:21.797Z,33.40
2022-09-23T13:34:58.882Z,33.90
2022-09-23T13:37:38.741Z,34.20
2022-09-23T13:40:24.959Z,34.60
2022-09-23T13:43:13.899Z,36.30
2022-09-23T13:45:43.619Z,35.90
2022-09-23T13:48:15.532Z,37.00
2022-09-23T13:50:49.679Z,37.60
2022-09-23T13:53:37.272Z,38.40
2022-09-23T13:56:13.192Z,38.80
2022-09-23T13:58:45.838Z,38.50
2022-09-23T14:01:34.970Z,38.30
2022-09-23T14:04:02.721Z,40.00
2022-09-23T14:06:31.278Z,40.50
2022-09-23T14:09:02.552Z,41.20
2022-09-23T14:11:33.201Z,40.30
2022-09-23T14:14:07.661Z,41.10
2022-09-23T14:16:40.649Z,40.60
2022-09-23T14:19:17.595Z,40.70
2022-09-23T14:21:49.245Z,41.30
2022-09-23T14:24:24.389Z,40.80
2022-09-23T14:27:06.762Z,40.80
2022-09-23T14:29:37.948Z,41.90
2022-09-23T14:32:28.092Z,42.40
2022-09-23T14:35:01.308Z,42.20
2022-09-23T14:37:55.382Z,42.50
2022-09-23T14:40:22.792Z,43.10
2022-09-23T14:43:02.227Z,43.70
2022-09-23T14:45:40.759Z,44.50
2022-09-23T14:48:19.071Z,43.70
2022-09-23T14:50:52.318Z,44.60
2022-09-23T14:53:22.784Z,44.20
2022-09-23T14:56:07.525Z,43.90
2022-09-23T14:58:59.408Z,43.90
2022-09-23T15:01:34.801Z,44.80
2022-09-23T15:04:16.120Z,44.70
2022-09-23T15:07:14.899Z,46.10
2022-09-23T15:09:43.934Z,45.00
2022-09-23T15:12:13.468Z,45.00
2022-09-23T15:14:46.752Z,45.80
2022-09-23T15:17:22.991Z,45.80
2022-09-23T15:19:56.670Z,46.00
2022-09-23T15:22:27.380Z,46.40
2022-09-23T15:25:12.942Z,46.30
2022-09-23T15:27:40.888Z,46.80
2022-09-23T15:30:20.785Z,46.50
2022-09-23T15:32:52.613Z,46.10
2022-09-23T15:35:26.878Z,46.00
2022-09-23T15:37:58.440Z,45.80
2022-09-23T15:40:28.238Z,46.40
2022-09-23T15:43:00.699Z,46.60
2022-09-23T15:45:30.141Z,45.90
2022-09-23T15:48:04.921Z,46.60
2022-09-23T15:50:36.908Z,48.10
2022-09-23T15:53:06.057Z,47.00
2022-09-23T15:55:33.861Z,47.20
2022-09-23T15:58:01.219Z,47.90
2022-09-23T16:00:28.825Z,48.20
2022-09-23T16:02:56.202Z,48.20
2022-09-23T16:05:33.700Z,48.30
2022-09-23T16:08:07.866Z,48.50
2022-09-23T16:10:37.417Z,49.50
2022-09-23T16:13:08.174Z,49.70
2022-09-23T16:15:36.096Z,50.80
2022-09-23T16:18:07.099Z,50.50
2022-09-23T16:20:37.032Z,50.40
2022-09-23T16:23:20.456Z,50.00
2022-09-23T16:25:50.318Z,49.90
2022-09-23T16:28:17.620Z,50.50
2022-09-23T16:30:45.297Z,51.00
2022-09-23T16:33:12.603Z,51.70
2022-09-23T16:35:40.242Z,51.90
2022-09-23T16:38:08.776Z,51.80
2022-09-23T16:40:36.117Z,52.70
2022-09-23T16:43:05.851Z,52.20
2022-09-23T16:45:33.411Z,53.00
2022-09-23T16:48:03.181Z,52.50
2022-09-23T16:50:34.574Z,52.60
2022-09-23T16:53:04.341Z,52.70
2022-09-23T16:55:33.970Z,52.90
2022-09-23T16:58:01.311Z,53.10
2022-09-23T17:00:47.309Z,53.10
2022-09-23T17:03:33.192Z,53.40
2022-09-23T17:06:08.089Z,53.60
2022-09-23T17:08:40.708Z,53.60
2022-09-23T17:11:11.828Z,53.80
2022-09-23T17:13:41.432Z,53.70
2022-09-23T17:16:21.799Z,54.20
2022-09-23T17:18:51.927Z,54.40
2022-09-23T17:21:26.453Z,54.40
2022-09-23T17:23:57.736Z,54.60
2022-09-23T17:26:30.526Z,54.80
2022-09-23T17:29:01.621Z,54.80
2022-09-23T17:31:31.410Z,55.00
2022-09-23T17:33:58.861Z,55.40
2022-09-23T17:36:27.393Z,55.50
2022-09-23T17:38:59.463Z,55.50
2022-09-23T17:41:27.590Z,55.80
2022-09-23T17:43:57.169Z,56.10
2022-09-23T17:46:28.929Z,56.10
2022-09-23T17:48:57.054Z,56.20
2022-09-23T17:51:27.755Z,56.20
2022-09-23T17:53:55.144Z,56.60
2022-09-23T17:56:32.776Z,56.70
2022-09-23T17:59:04.232Z,56.70
2022-09-23T18:01:35.623Z,56.60
2022-09-23T18:04:05.751Z,56.80
2022-09-23T18:06:35.892Z,56.80
2022-09-23T18:09:05.357Z,57.10
2022-09-23T18:11:36.042Z,57.30
2022-09-23T18:14:11.817Z,57.20
2022-09-23T18:16:46.253Z,57.40
2022-09-23T18:19:18.614Z,57.50
2022-09-23T18:21:54.660Z,57.50
2022-09-23T18:24:38.174Z,57.70
2022-09-23T18:27:06.584Z,57.70
2022-09-23T18:29:35.132Z,58.00
2022-09-23T18:32:03.213Z,58.20
2022-09-23T18:34:30.738Z,58.30
2022-09-23T18:36:58.156Z,58.20
2022-09-23T18:39:25.959Z,58.30
2022-09-23T18:41:53.635Z,58.60
2022-09-23T18:44:21.340Z,58.40
2022-09-23T18:46:48.681Z,58.70
2022-09-23T18:49:36.835Z,58.80
2022-09-23T18:52:04.140Z,58.90
2022-09-23T18:54:33.698Z,58.80
2022-09-23T18:57:05.767Z,58.80
2022-09-23T18:59:33.447Z,59.00
2022-09-23T19:02:01.136Z,59.10
2022-09-23T19:04:29.107Z,59.40
2022-09-23T19:06:56.672Z,59.40
2022-09-23T19:09:24.762Z,59.40
2022-09-23T19:11:54.346Z,59.60
2022-09-23T19:14:23.952Z,59.70
2022-09-23T19:16:51.360Z,59.70
2022-09-23T19:19:18.747Z,59.70
2022-09-23T19:21:46.381Z,59.80
2022-09-23T19:24:19.873Z,59.70
2022-09-23T19:26:48.501Z,59.90
2022-09-23T19:29:22.152Z,59.80
2022-09-23T19:31:50.169Z,60.10
2022-09-23T19:34:20.126Z,60.30
2022-09-23T19:36:50.200Z,60.60
2022-09-23T19:39:22.252Z,60.50
2022-09-23T19:41:50.830Z,60.80
2022-09-23T19:44:20.028Z,60.80
2022-09-23T19:46:53.637Z,60.90
2022-09-23T19:49:24.574Z,60.90
2022-09-23T19:51:56.971Z,61.10
2022-09-23T19:54:29.417Z,61.50
2022-09-23T19:56:56.832Z,61.70
2022-09-23T19:59:26.463Z,61.60
2022-09-23T20:01:54.192Z,61.80
2022-09-23T20:04:24.227Z,62.10
2022-09-23T20:06:51.650Z,62.10
2022-09-23T20:09:21.686Z,62.30
2022-09-23T20:11:49.755Z,62.40
2022-09-23T20:14:19.335Z,62.40
2022-09-23T20:16:47.062Z,62.40
2022-09-23T20:19:14.469Z,62.40
2022-09-23T20:21:41.820Z,62.50
2022-09-23T20:24:13.096Z,62.50
2022-09-23T20:26:58.902Z,62.60
2022-09-23T20:29:28.839Z,62.50
2022-09-23T20:31:59.066Z,62.60
2022-09-23T20:34:29.724Z,62.80
2022-09-23T20:36:58.668Z,62.70
2022-09-23T20:39:26.024Z,62.70
2022-09-23T20:41:54.332Z,62.80
2022-09-23T20:44:21.745Z,63.00
2022-09-23T20:46:51.949Z,63.00
2022-09-23T20:49:20.921Z,63.20
2022-09-23T20:51:49.200Z,63.20
2022-09-23T20:54:20.751Z,63.30
2022-09-23T20:56:48.375Z,63.40
2022-09-23T20:59:18.368Z,63.40
2022-09-23T21:01:47.590Z,63.50
2022-09-23T21:04:17.908Z,63.60
2022-09-23T21:06:47.721Z,63.70
2022-09-23T21:09:15.162Z,63.80
2022-09-23T21:11:42.671Z,63.90
2022-09-23T21:14:10.258Z,63.90
2022-09-23T21:16:37.767Z,64.00
2022-09-23T21:19:10.301Z,64.20
2022-09-23T21:21:44.652Z,64.30
2022-09-23T21:24:43.791Z,64.30
2022-09-23T21:26:59.960Z,65.00
2022-09-23T21:29:27.807Z,64.40
2022-09-23T21:31:55.627Z,64.40
2022-09-23T21:34:28.141Z,64.40
2022-09-23T21:37:00.460Z,64.50
2022-09-23T21:39:32.098Z,64.60
2022-09-23T21:42:02.054Z,64.80
2022-09-23T21:44:31.824Z,64.70
2022-09-23T21:47:03.906Z,65.00
2022-09-23T21:49:33.650Z,65.10
2022-09-23T21:52:01.203Z,65.10
2022-09-23T21:54:29.631Z,65.20
2022-09-23T21:56:57.075Z,65.40
2022-09-23T21:59:27.260Z,65.40
2022-09-23T22:01:54.597Z,65.80
2022-09-23T22:04:24.596Z,66.00
2022-09-23T22:06:57.063Z,66.10
2022-09-23T22:09:24.684Z,66.00
2022-09-23T22:12:07.808Z,66.00
2022-09-23T22:14:38.898Z,66.70
2022-09-23T22:17:08.596Z,65.80
2022-09-23T22:19:44.348Z,65.70
2022-09-23T22:22:16.218Z,65.80
2022-09-23T22:24:49.070Z,65.70
2022-09-23T22:27:18.914Z,65.70
2022-09-23T22:30:07.360Z,65.70
2022-09-23T22:32:41.090Z,65.60
2022-09-23T22:35:14.214Z,65.50
2022-09-23T22:37:44.256Z,65.70
2022-09-23T22:40:14.696Z,65.60
2022-09-23T22:42:42.895Z,65.90
2022-09-23T22:45:14.956Z,65.90
2022-09-23T22:47:48.252Z,65.90
2022-09-23T22:50:15.777Z,66.00
2022-09-23T22:52:43.592Z,65.80
2022-09-23T22:55:13.466Z,65.90
2022-09-23T22:57:40.916Z,66.00
2022-09-23T23:00:12.360Z,66.00
2022-09-23T23:02:42.722Z,66.20
2022-09-23T23:05:16.541Z,66.10
2022-09-23T23:07:46.333Z,66.00
2022-09-23T23:10:16.921Z,65.80
2022-09-23T23:12:46.971Z,65.80
2022-09-23T23:15:14.314Z,65.80
2022-09-23T23:17:43.449Z,66.00
2022-09-23T23:20:13.089Z,66.10
2022-09-23T23:22:40.442Z,66.20
2022-09-23T23:25:08.119Z,66.30
2022-09-23T23:27:40.167Z,66.40
2022-09-23T23:30:11.373Z,66.60
2022-09-23T23:32:38.773Z,66.50
2022-09-23T23:35:06.476Z,66.50
2022-09-23T23:37:38.723Z,66.50
2022-09-23T23:40:06.818Z,66.60
2022-09-23T23:42:34.685Z,66.60
2022-09-23T23:45:04.705Z,66.50
2022-09-23T23:47:34.580Z,66.70
2022-09-23T23:50:04.308Z,66.80
2022-09-23T23:52:36.515Z,66.90
2022-09-23T23:55:04.055Z,67.00
2022-09-23T23:57:31.306Z,67.10
